Time;durP1;ratioP1;P1;durP2;ratioP2;P2;SDS_P1;SDS_P2;PMS_P1;PMS_P2;Temp;Humidity;BMP_temperature;BMP_pressure;BME280_temperature;BME280_humidity;BME280_pressure;Samples;Min_cycle;Max_cycle;Signal;HPM_P1;HPM_P2
2022/08/29 00:00:55;;;;;;;;;1.00;0.00;;;;;20.75;43.58;100941.50;5018968;28;45532;-76
2022/08/29 00:03:21;;;;;;;;;2.00;2.00;;;;;20.76;43.19;100938.75;5028535;28;45511;-75
2022/08/29 00:05:46;;;;;;;;;0.00;0.00;;;;;20.76;43.29;100936.06;5025433;28;45438;-75
2022/08/29 00:08:11;;;;;;;;;0.50;0.50;;;;;20.69;43.57;100939.19;5021815;28;46427;-74
2022/08/29 00:10:38;;;;;;;;;1.00;1.00;;;;;20.68;43.35;100937.44;5024562;28;45431;-74
2022/08/29 00:13:06;;;;;;;;;2.75;0.50;;;;;20.63;43.53;100937.66;5024841;28;45502;-74
2022/08/29 00:15:32;;;;;;;;;0.00;0.00;;;;;20.69;43.67;100937.34;5026250;28;45452;-76
2022/08/29 00:17:58;;;;;;;;;0.75;0.75;;;;;20.67;44.26;100936.59;5023730;28;45451;-75
2022/08/29 00:20:27;;;;;;;;;4.25;2.00;;;;;20.62;43.50;100929.69;5021530;28;45454;-74
2022/08/29 00:22:53;;;;;;;;;1.00;1.00;;;;;20.64;43.71;100928.66;5026803;28;45451;-75
2022/08/29 00:25:19;;;;;;;;;1.00;0.00;;;;;20.62;43.89;100925.22;5028120;28;45490;-74
2022/08/29 00:27:44;;;;;;;;;2.50;0.00;;;;;20.63;43.44;100932.28;5002164;28;46372;-75
2022/08/29 00:30:11;;;;;;;;;2.00;2.00;;;;;20.59;43.56;100930.75;5027244;28;45530;-75
2022/08/29 00:32:36;;;;;;;;;0.00;0.00;;;;;20.50;43.71;100929.44;5024079;28;45606;-75
2022/08/29 00:35:08;;;;;;;;;0.00;0.00;;;;;20.56;43.78;100936.31;5024955;28;45697;-76
2022/08/29 00:37:35;;;;;;;;;1.00;1.00;;;;;20.55;44.07;100923.81;5021757;28;46133;-74
2022/08/29 00:40:01;;;;;;;;;1.50;0.00;;;;;20.52;43.90;100927.53;5019177;28;45527;-75
2022/08/29 00:42:26;;;;;;;;;0.00;0.00;;;;;20.51;43.95;100927.63;5020985;28;45378;-74
2022/08/29 00:44:52;;;;;;;;;1.00;0.00;;;;;20.46;43.93;100919.81;5020749;28;45461;-74
2022/08/29 00:47:28;;;;;;;;;0.00;0.00;;;;;20.46;44.22;100938.63;5018304;28;45514;-74
2022/08/29 00:49:56;;;;;;;;;2.00;0.00;;;;;20.45;44.16;100931.50;5019031;28;45510;-74
2022/08/29 00:52:36;;;;;;;;;1.00;0.00;;;;;20.45;44.04;100933.34;5018259;28;45475;-75
2022/08/29 00:55:10;;;;;;;;;0.00;0.00;;;;;20.45;44.05;100933.34;5021629;28;45550;-75
2022/08/29 00:57:41;;;;;;;;;0.00;0.00;;;;;20.44;43.89;100942.31;5019665;28;46339;-75
2022/08/29 01:00:08;;;;;;;;;0.50;0.00;;;;;20.45;44.32;100941.38;5024808;28;45542;-74
2022/08/29 01:02:35;;;;;;;;;1.00;0.00;;;;;20.37;44.07;100934.63;5025279;28;45503;-74
2022/08/29 01:05:00;;;;;;;;;1.75;0.00;;;;;20.38;44.32;100939.03;5022508;28;45663;-75
2022/08/29 01:07:26;;;;;;;;;1.75;0.00;;;;;20.40;44.13;100947.88;5021498;28;46342;-75
2022/08/29 01:09:52;;;;;;;;;0.50;0.50;;;;;20.41;44.25;100943.38;5020345;28;45561;-74
2022/08/29 01:12:19;;;;;;;;;0.00;0.00;;;;;20.40;44.89;100941.66;5017982;28;45391;-75
2022/08/29 01:14:48;;;;;;;;;0.00;0.00;;;;;20.39;44.35;100931.84;5025666;28;45612;-74
2022/08/29 01:17:21;;;;;;;;;0.25;0.25;;;;;20.36;44.43;100921.28;5025385;28;45605;-75
2022/08/29 01:20:04;;;;;;;;;1.25;0.00;;;;;20.41;44.59;100927.28;5022371;28;45772;-75
2022/08/29 01:23:06;;;;;;;;;0.75;0.00;;;;;20.38;44.17;100920.25;5016059;28;45560;-75
2022/08/29 01:25:37;;;;;;;;;0.50;0.00;;;;;20.35;44.17;100915.06;5021704;28;45711;-76
2022/08/29 01:28:22;;;;;;;;;0.50;0.00;;;;;20.31;44.50;100921.53;5020950;28;46200;-74
2022/08/29 01:31:07;;;;;;;;;0.50;0.50;;;;;20.33;44.34;100913.41;5025961;28;45421;-75
2022/08/29 01:33:35;;;;;;;;;0.25;0.00;;;;;20.35;44.67;100923.13;5028130;28;45489;-74
2022/08/29 01:36:01;;;;;;;;;0.00;0.00;;;;;20.37;44.10;100915.84;5023300;28;45470;-74
2022/08/29 01:38:26;;;;;;;;;0.00;0.00;;;;;20.33;44.51;100918.78;5013663;28;45621;-76
2022/08/29 01:40:55;;;;;;;;;0.00;0.00;;;;;20.30;44.51;100917.16;5025073;28;45444;-75
2022/08/29 01:43:21;;;;;;;;;0.00;0.00;;;;;20.27;44.56;100914.63;5024874;28;45471;-75
2022/08/29 01:45:48;;;;;;;;;0.00;0.00;;;;;20.27;44.28;100917.31;5018553;28;45630;-75
2022/08/29 01:48:13;;;;;;;;;0.00;0.00;;;;;20.27;44.53;100921.78;5017791;28;46018;-74
2022/08/29 01:50:39;;;;;;;;;0.00;0.00;;;;;20.18;44.56;100909.78;5017076;28;45436;-75
2022/08/29 01:53:04;;;;;;;;;1.25;0.75;;;;;20.11;44.61;100903.00;5023232;28;45457;-76
2022/08/29 01:55:29;;;;;;;;;0.75;0.00;;;;;20.22;44.35;100922.94;5028801;28;45432;-74
2022/08/29 01:57:55;;;;;;;;;0.00;0.00;;;;;20.18;44.61;100918.69;5024814;28;46059;-75
2022/08/29 02:00:20;;;;;;;;;0.00;0.00;;;;;20.15;44.96;100915.31;5023521;28;45583;-75
2022/08/29 02:02:45;;;;;;;;;1.00;1.00;;;;;20.13;44.67;100914.50;5020365;28;45428;-75
2022/08/29 02:05:11;;;;;;;;;1.00;0.75;;;;;20.05;44.93;100907.75;5024553;28;45555;-73
2022/08/29 02:07:37;;;;;;;;;1.00;0.00;;;;;20.08;45.09;100919.28;5032125;28;45463;-75
2022/08/29 02:10:04;;;;;;;;;0.00;0.00;;;;;20.07;45.22;100907.66;5023050;28;45521;-74
2022/08/29 02:12:30;;;;;;;;;0.00;0.00;;;;;20.05;44.94;100920.28;5028137;28;45555;-76
2022/08/29 02:14:55;;;;;;;;;1.00;0.00;;;;;20.01;45.28;100911.56;5026691;28;45396;-75
2022/08/29 02:17:25;;;;;;;;;0.75;0.75;;;;;19.95;45.16;100903.84;5031173;28;45466;-75
2022/08/29 02:19:50;;;;;;;;;0.00;0.00;;;;;19.98;45.16;100909.03;5028996;28;45471;-75
2022/08/29 02:22:16;;;;;;;;;2.50;1.25;;;;;19.91;45.15;100898.72;5024471;28;45427;-75
2022/08/29 02:24:41;;;;;;;;;0.00;0.00;;;;;19.89;45.53;100906.88;5017823;28;45564;-73
2022/08/29 02:27:08;;;;;;;;;0.00;0.00;;;;;19.86;45.29;100905.19;5005249;28;47280;-74
2022/08/29 02:29:33;;;;;;;;;0.00;0.00;;;;;19.77;45.65;100904.78;5028425;28;46425;-74
2022/08/29 02:31:59;;;;;;;;;2.00;0.00;;;;;19.77;45.34;100900.34;5025438;28;45469;-75
2022/08/29 02:34:29;;;;;;;;;0.75;0.00;;;;;19.76;45.83;100908.44;5025606;28;45368;-75
2022/08/29 02:36:56;;;;;;;;;0.50;0.50;;;;;19.65;45.94;100888.41;5021704;28;46214;-76
2022/08/29 02:39:22;;;;;;;;;1.00;0.00;;;;;19.67;46.02;100899.91;5023781;28;45425;-75
2022/08/29 02:41:47;;;;;;;;;1.75;1.00;;;;;19.55;45.99;100888.97;5018008;28;45477;-74
2022/08/29 02:44:13;;;;;;;;;0.00;0.00;;;;;19.61;46.29;100905.59;5027885;28;45439;-75
2022/08/29 02:46:39;;;;;;;;;0.00;0.00;;;;;19.60;46.18;100903.88;5023266;28;46007;-75
2022/08/29 02:49:04;;;;;;;;;0.00;0.00;;;;;19.53;46.18;100902.47;5022956;28;45473;-74
2022/08/29 02:51:31;;;;;;;;;1.00;1.00;;;;;19.54;46.27;100904.22;5026194;28;45627;-76
2022/08/29 02:53:57;;;;;;;;;0.00;0.00;;;;;19.54;46.37;100906.88;5022413;28;45475;-77
2022/08/29 02:56:23;;;;;;;;;0.00;0.00;;;;;19.46;46.37;100895.69;5026535;28;45494;-74
2022/08/29 02:58:51;;;;;;;;;0.00;0.00;;;;;19.44;46.74;100886.88;5028790;28;45511;-75
2022/08/29 03:01:21;;;;;;;;;1.00;0.00;;;;;19.39;46.66;100895.16;5029497;28;45646;-76
2022/08/29 03:03:49;;;;;;;;;0.00;0.00;;;;;19.38;46.70;100901.44;5028967;28;45456;-74
2022/08/29 03:06:15;;;;;;;;;2.25;1.00;;;;;19.39;46.83;100902.28;5006416;28;46859;-75
2022/08/29 03:08:41;;;;;;;;;0.00;0.00;;;;;19.37;47.11;100896.16;5023516;28;45571;-75
2022/08/29 03:11:07;;;;;;;;;0.00;0.00;;;;;19.35;46.91;100896.25;5025118;28;45492;-74
2022/08/29 03:13:33;;;;;;;;;0.00;0.00;;;;;19.31;47.29;100890.19;5018036;28;45626;-74
2022/08/29 03:15:58;;;;;;;;;0.25;0.25;;;;;19.32;47.00;100905.28;5023326;28;45469;-75
2022/08/29 03:18:24;;;;;;;;;0.00;0.00;;;;;19.22;47.09;100893.34;5007548;28;45539;-73
2022/08/29 03:20:49;;;;;;;;;0.00;0.00;;;;;19.29;47.62;100893.88;5031057;28;45503;-75
2022/08/29 03:23:14;;;;;;;;;0.00;0.00;;;;;19.27;47.51;100893.09;5020047;28;45493;-74
2022/08/29 03:25:40;;;;;;;;;0.00;0.00;;;;;19.20;47.32;100881.81;5023402;28;46264;-75
2022/08/29 03:28:06;;;;;;;;;0.25;0.25;;;;;19.26;47.16;100892.22;5030274;28;45579;-74
2022/08/29 03:30:31;;;;;;;;;0.00;0.00;;;;;19.27;47.40;100891.28;5024266;28;45368;-75
2022/08/29 03:32:57;;;;;;;;;0.50;0.50;;;;;19.23;47.73;100886.16;5020521;28;45281;-75
2022/08/29 03:35:22;;;;;;;;;0.00;0.00;;;;;19.23;47.40;100880.81;5025600;28;46185;-74
2022/08/29 03:37:49;;;;;;;;;0.00;0.00;;;;;19.24;47.09;100886.09;5026803;28;45486;-75
2022/08/29 03:40:17;;;;;;;;;0.00;0.00;;;;;19.26;47.19;100876.13;5024513;28;45407;-75
2022/08/29 03:42:43;;;;;;;;;2.00;0.00;;;;;19.20;47.00;100889.00;5026968;28;45566;-75
2022/08/29 03:45:12;;;;;;;;;0.75;0.00;;;;;19.16;47.53;100885.59;5020491;28;45758;-75
2022/08/29 03:47:38;;;;;;;;;2.00;0.00;;;;;19.11;47.04;100876.94;5018237;28;45684;-74
2022/08/29 03:50:04;;;;;;;;;1.00;1.00;;;;;19.12;47.69;100882.22;5030231;28;45915;-75
2022/08/29 03:52:30;;;;;;;;;1.00;1.00;;;;;19.11;47.87;100888.50;5031989;28;45534;-75
2022/08/29 03:54:56;;;;;;;;;0.00;0.00;;;;;19.09;48.04;100884.19;5026464;28;45797;-74
2022/08/29 03:57:21;;;;;;;;;0.00;0.00;;;;;19.07;48.03;100888.75;5021270;28;45522;-75
2022/08/29 03:59:47;;;;;;;;;1.00;1.00;;;;;18.97;47.75;100874.97;5031993;28;45475;-75
2022/08/29 04:02:13;;;;;;;;;1.00;0.00;;;;;19.02;48.02;100896.16;5020443;28;45403;-74
2022/08/29 04:07:22;;;;;;;;;0.00;0.00;;;;;18.87;48.38;100892.44;5027882;28;45461;-73
2022/08/29 04:09:48;;;;;;;;;0.00;0.00;;;;;18.84;48.50;100898.75;5009273;28;45392;-74
2022/08/29 04:12:14;;;;;;;;;1.00;0.00;;;;;18.83;49.00;100894.38;5031008;28;45694;-74
2022/08/29 04:14:40;;;;;;;;;0.00;0.00;;;;;18.83;48.58;100897.03;5033608;28;46735;-74
2022/08/29 04:17:09;;;;;;;;;0.00;0.00;;;;;18.86;48.52;100893.34;5013674;28;45625;-73
2022/08/29 04:19:34;;;;;;;;;0.00;0.00;;;;;18.86;48.84;100896.03;5030705;28;45392;-75
2022/08/29 04:22:00;;;;;;;;;0.00;0.00;;;;;18.65;48.63;100862.19;5026412;28;45517;-75
2022/08/29 04:24:26;;;;;;;;;0.00;0.00;;;;;18.73;48.65;100887.72;5022495;28;46698;-75
2022/08/29 04:26:51;;;;;;;;;0.00;0.00;;;;;18.75;48.52;100883.16;5014715;28;45483;-75
2022/08/29 04:29:17;;;;;;;;;0.00;0.00;;;;;18.73;48.38;100888.56;5024857;28;45564;-74
2022/08/29 04:31:43;;;;;;;;;0.50;0.50;;;;;18.69;48.71;100889.69;5021060;28;45684;-75
2022/08/29 04:34:11;;;;;;;;;0.25;0.25;;;;;18.66;49.36;100884.50;5014745;28;46323;-75
2022/08/29 04:36:40;;;;;;;;;0.00;0.00;;;;;18.64;49.08;100897.94;5014444;28;45369;-74
2022/08/29 04:39:06;;;;;;;;;0.50;0.00;;;;;18.69;48.84;100891.47;5014662;28;46566;-75
2022/08/29 04:41:33;;;;;;;;;0.25;0.25;;;;;18.71;48.65;100895.81;5024696;28;45388;-74
2022/08/29 04:43:58;;;;;;;;;0.25;0.00;;;;;18.57;48.87;100875.09;5023449;28;45507;-75
2022/08/29 04:46:24;;;;;;;;;1.00;0.00;;;;;18.61;48.69;100889.19;5006493;28;46059;-74
2022/08/29 04:48:49;;;;;;;;;0.50;0.00;;;;;18.54;49.02;100879.72;5014128;28;45419;-75
2022/08/29 04:51:14;;;;;;;;;3.25;0.00;;;;;18.67;48.81;100899.59;5025647;28;45513;-75
2022/08/29 04:53:41;;;;;;;;;1.00;0.00;;;;;18.64;49.01;100903.31;5027917;28;46005;-75
2022/08/29 04:56:08;;;;;;;;;0.25;0.25;;;;;18.66;49.10;100905.91;5013645;28;45396;-75
2022/08/29 04:58:36;;;;;;;;;0.00;0.00;;;;;18.60;48.92;100901.72;5014485;28;45461;-73
2022/08/29 05:01:02;;;;;;;;;0.00;0.00;;;;;18.57;49.62;100900.97;5023434;28;45645;-74
2022/08/29 05:03:28;;;;;;;;;2.75;0.00;;;;;18.59;48.97;100916.03;5014486;28;45503;-76
2022/08/29 05:06:11;;;;;;;;;0.00;0.00;;;;;18.59;49.22;100915.16;5004125;28;45449;-75
2022/08/29 05:08:39;;;;;;;;;1.00;1.00;;;;;18.57;49.47;100931.31;5021663;28;45629;-75
2022/08/29 05:11:08;;;;;;;;;0.00;0.00;;;;;18.58;49.11;100924.13;5021059;28;45515;-75
2022/08/29 05:13:34;;;;;;;;;0.00;0.00;;;;;18.61;49.10;100924.88;5025526;28;46441;-75
2022/08/29 05:16:04;;;;;;;;;1.00;0.00;;;;;18.76;49.00;100925.06;5003301;28;45560;-75
2022/08/29 05:18:30;;;;;;;;;0.00;0.00;;;;;18.87;48.86;100927.22;5017426;28;45543;-75
2022/08/29 05:20:55;;;;;;;;;1.00;0.00;;;;;19.06;48.15;100921.84;5028238;28;45355;-76
2022/08/29 05:23:20;;;;;;;;;0.00;0.00;;;;;19.24;47.53;100920.91;5027490;28;45487;-75
2022/08/29 05:25:54;;;;;;;;;0.00;0.00;;;;;19.43;47.16;100896.69;5030322;28;45316;-75
2022/08/29 05:28:19;;;;;;;;;0.50;0.50;;;;;19.90;46.19;100935.41;5018106;28;45634;-74
2022/08/29 05:30:45;;;;;;;;;0.00;0.00;;;;;20.11;46.02;100930.69;5023906;28;45713;-74
2022/08/29 05:33:10;;;;;;;;;0.00;0.00;;;;;20.25;45.96;100932.63;5022931;28;46066;-74
2022/08/29 05:35:36;;;;;;;;;1.00;0.75;;;;;20.51;44.80;100941.94;5022313;28;45771;-75
2022/08/29 05:38:02;;;;;;;;;0.00;0.00;;;;;20.72;44.58;100920.22;5028075;28;45574;-74
2022/08/29 05:40:27;;;;;;;;;0.00;0.00;;;;;21.20;44.45;100941.63;5023533;28;45371;-75
2022/08/29 05:42:53;;;;;;;;;1.00;0.00;;;;;21.53;42.46;100948.66;5029606;28;46114;-75
2022/08/29 05:45:18;;;;;;;;;0.25;0.00;;;;;21.82;42.52;100947.78;5026651;28;45446;-76
2022/08/29 05:47:44;;;;;;;;;3.00;0.50;;;;;21.87;42.38;100946.63;5044053;28;45651;-75
2022/08/29 05:50:10;;;;;;;;;0.75;0.75;;;;;22.07;42.16;100942.69;5037804;28;45559;-75
2022/08/29 05:52:36;;;;;;;;;0.00;0.00;;;;;22.54;41.32;100942.38;5039755;28;47303;-76
2022/08/29 05:55:02;;;;;;;;;0.00;0.00;;;;;22.93;40.09;100942.59;5037136;28;45447;-76
2022/08/29 05:57:27;;;;;;;;;1.00;0.00;;;;;23.28;39.38;100947.47;5039092;28;45512;-75
2022/08/29 05:59:53;;;;;;;;;1.75;1.00;;;;;23.83;38.67;100936.56;5029220;28;45434;-76
2022/08/29 06:02:20;;;;;;;;;0.00;0.00;;;;;24.36;37.96;100944.53;5015525;28;46300;-75
2022/08/29 06:04:46;;;;;;;;;0.00;0.00;;;;;24.52;37.26;100947.84;5030221;28;45461;-76
2022/08/29 06:07:13;;;;;;;;;0.00;0.00;;;;;24.22;37.46;100943.69;5026435;28;45344;-77
2022/08/29 06:09:39;;;;;;;;;1.00;1.00;;;;;24.13;37.24;100947.03;5017163;28;45538;-76
2022/08/29 06:12:06;;;;;;;;;0.25;0.25;;;;;24.15;37.35;100947.78;5022536;28;45540;-75
2022/08/29 06:14:32;;;;;;;;;0.75;0.75;;;;;24.32;37.07;100951.13;5035477;28;45520;-76
2022/08/29 06:16:58;;;;;;;;;1.00;1.00;;;;;24.17;37.44;100950.38;5024348;28;45470;-77
2022/08/29 06:19:24;;;;;;;;;0.00;0.00;;;;;23.75;38.17;100934.41;5028585;28;45443;-76
2022/08/29 06:21:49;;;;;;;;;0.50;0.00;;;;;23.62;38.85;100955.94;5021059;28;45413;-79
2022/08/29 06:24:15;;;;;;;;;1.50;0.00;;;;;23.46;39.12;100958.84;5031829;28;45534;-78
2022/08/29 06:26:43;;;;;;;;;1.00;1.00;;;;;23.35;39.01;100966.78;5021424;28;45586;-78
2022/08/29 06:29:09;;;;;;;;;1.25;0.00;;;;;23.10;39.59;100970.28;5028411;28;45416;-78
2022/08/29 06:31:35;;;;;;;;;0.75;0.75;;;;;22.94;39.47;100967.69;5025377;28;45927;-77
2022/08/29 06:34:03;;;;;;;;;1.00;1.00;;;;;22.71;39.99;100964.69;5024673;28;45354;-77
2022/08/29 06:36:31;;;;;;;;;0.00;0.00;;;;;22.45;40.32;100964.53;5022943;28;45505;-77
2022/08/29 06:38:58;;;;;;;;;1.00;1.00;;;;;22.45;40.86;100967.22;5024229;28;45484;-77
2022/08/29 06:41:25;;;;;;;;;0.25;0.00;;;;;22.66;40.00;100966.81;5026637;28;46063;-78
2022/08/29 06:43:50;;;;;;;;;0.00;0.00;;;;;22.84;39.94;100962.91;5021552;28;45487;-77
2022/08/29 06:46:41;;;;;;;;;0.00;0.00;;;;;22.89;39.61;100965.31;5025486;28;45427;-74
2022/08/29 06:49:12;;;;;;;;;2.75;1.25;;;;;23.00;39.85;100972.69;5034949;28;45308;-74
2022/08/29 06:51:39;;;;;;;;;1.00;1.00;;;;;23.21;39.35;100968.56;5022063;28;46130;-74
2022/08/29 06:54:07;;;;;;;;;0.00;0.00;;;;;23.72;38.67;100961.59;5016060;28;45463;-73
2022/08/29 06:56:33;;;;;;;;;3.00;1.00;;;;;23.91;37.55;100962.06;5019922;28;45502;-74
2022/08/29 06:58:59;;;;;;;;;2.00;0.00;;;;;24.05;38.26;100962.91;5028472;28;45545;-81
2022/08/29 07:01:25;;;;;;;;;0.00;0.00;;;;;24.25;37.48;100972.31;5022932;28;46564;-75
2022/08/29 07:03:55;;;;;;;;;0.75;0.00;;;;;24.45;37.08;100973.56;5021369;28;45598;-77
2022/08/29 07:06:22;;;;;;;;;0.00;0.00;;;;;24.50;36.54;100963.28;5022199;28;45367;-81
2022/08/29 07:08:48;;;;;;;;;1.00;1.00;;;;;24.92;36.78;100965.69;5026366;28;45605;-75
2022/08/29 07:11:13;;;;;;;;;0.75;0.00;;;;;25.02;35.74;100974.81;5023552;28;45969;-76
2022/08/29 07:13:39;;;;;;;;;1.00;1.00;;;;;25.48;35.10;100965.13;5024778;28;45586;-75
2022/08/29 07:16:15;;;;;;;;;0.75;0.75;;;;;25.81;34.52;100968.88;5025135;28;45403;-75
2022/08/29 07:18:41;;;;;;;;;2.00;0.00;;;;;26.04;34.61;100951.72;5018516;28;45522;-76
2022/08/29 07:21:08;;;;;;;;;1.00;1.00;;;;;26.33;33.60;100962.06;5022172;28;46135;-76
2022/08/29 07:23:34;;;;;;;;;1.00;0.25;;;;;26.34;33.42;100961.09;5034627;28;45395;-76
2022/08/29 07:26:08;;;;;;;;;0.00;0.00;;;;;26.52;33.24;100972.25;5034428;28;45457;-77
2022/08/29 07:28:34;;;;;;;;;0.25;0.25;;;;;26.47;33.15;100957.38;5034969;28;45315;-76
2022/08/29 07:31:00;;;;;;;;;2.00;1.00;;;;;26.45;33.04;100957.50;5033749;28;46347;-75
2022/08/29 07:33:25;;;;;;;;;0.25;0.25;;;;;26.51;33.03;100953.41;5034160;28;45356;-76
2022/08/29 07:35:53;;;;;;;;;2.00;0.75;;;;;26.90;32.50;100953.88;5016403;28;45350;-75
2022/08/29 07:38:19;;;;;;;;;1.25;1.00;;;;;27.43;32.01;100961.22;5034780;28;45264;-77
2022/08/29 07:40:44;;;;;;;;;1.00;1.00;;;;;27.88;31.03;100968.22;5035358;28;45471;-76
2022/08/29 07:43:10;;;;;;;;;0.25;0.25;;;;;28.28;30.95;100968.31;5033755;28;45546;-77
2022/08/29 07:45:40;;;;;;;;;0.50;0.50;;;;;28.76;30.46;100966.81;5034852;28;45514;-78
2022/08/29 07:48:05;;;;;;;;;0.00;0.00;;;;;29.19;29.31;100962.00;5034749;28;45447;-76
2022/08/29 07:50:31;;;;;;;;;1.00;0.50;;;;;29.10;28.53;100969.13;5035069;28;46096;-75
2022/08/29 07:52:56;;;;;;;;;0.00;0.00;;;;;29.20;29.53;100959.16;5016762;28;45406;-76
2022/08/29 07:55:22;;;;;;;;;1.75;1.25;;;;;29.90;28.47;100967.13;5033753;28;45402;-77
2022/08/29 07:57:51;;;;;;;;;1.25;1.00;;;;;30.44;27.08;100974.69;5016469;28;45616;-75
2022/08/29 08:00:17;;;;;;;;;2.75;1.25;;;;;30.77;27.05;100958.72;5016298;28;47413;-76
2022/08/29 08:02:42;;;;;;;;;1.25;1.25;;;;;31.02;27.07;100969.94;5034836;28;45458;-76
2022/08/29 08:05:08;;;;;;;;;0.75;0.00;;;;;31.26;25.98;100959.25;5034232;28;45572;-76
2022/08/29 08:07:34;;;;;;;;;2.00;0.00;;;;;31.67;26.19;100965.09;5016068;28;45425;-75
2022/08/29 08:10:00;;;;;;;;;3.00;0.75;;;;;31.91;25.77;100952.59;5034231;28;45474;-75
2022/08/29 08:12:25;;;;;;;;;0.75;0.00;;;;;32.15;25.74;100949.19;5032917;28;45531;-75
2022/08/29 08:14:51;;;;;;;;;2.00;0.00;;;;;32.19;25.04;100945.13;5034179;28;45374;-76
2022/08/29 08:17:17;;;;;;;;;1.50;0.00;;;;;32.20;25.12;100945.97;5036493;28;45459;-75
2022/08/29 08:19:43;;;;;;;;;0.75;0.75;;;;;32.37;25.01;100941.41;5040400;28;46275;-75
2022/08/29 08:22:08;;;;;;;;;2.00;0.75;;;;;32.65;25.05;100944.81;5033378;28;45400;-77
2022/08/29 08:24:34;;;;;;;;;1.25;1.00;;;;;32.99;24.43;100938.38;5033779;28;45372;-74
2022/08/29 08:26:59;;;;;;;;;1.25;1.00;;;;;33.18;24.52;100947.31;5032974;28;45569;-76
2022/08/29 08:29:25;;;;;;;;;1.00;1.00;;;;;33.35;24.30;100935.34;5015418;28;46849;-76
2022/08/29 08:31:51;;;;;;;;;0.00;0.00;;;;;33.56;23.61;100939.47;5016110;28;45404;-75
2022/08/29 08:34:17;;;;;;;;;1.00;1.00;;;;;33.55;24.25;100940.47;5033887;28;45426;-77
2022/08/29 08:36:44;;;;;;;;;1.25;1.25;;;;;33.50;24.23;100931.94;5033376;28;45521;-76
2022/08/29 08:39:11;;;;;;;;;2.00;1.00;;;;;33.56;23.43;100942.19;5033434;28;46357;-76
2022/08/29 08:41:48;;;;;;;;;1.00;1.00;;;;;33.63;24.04;100930.38;5032817;28;45356;-76
2022/08/29 08:44:27;;;;;;;;;1.25;1.00;;;;;33.83;23.21;100949.22;5033371;28;45342;-77
2022/08/29 08:46:59;;;;;;;;;1.00;1.00;;;;;33.93;23.29;100941.63;5034088;28;45448;-77
2022/08/29 08:50:00;;;;;;;;;2.00;2.00;;;;;33.94;23.39;100950.72;5034647;28;45404;-77
2022/08/29 08:52:28;;;;;;;;;1.50;1.50;;;;;33.90;24.14;100950.19;5023406;28;45567;-78
2022/08/29 08:55:00;;;;;;;;;3.25;1.75;;;;;34.20;23.70;100944.97;5037055;28;45384;-76
2022/08/29 08:57:35;;;;;;;;;0.00;0.00;;;;;34.09;22.90;100948.97;5037152;28;45494;-76
2022/08/29 09:00:02;;;;;;;;;2.00;1.00;;;;;34.23;23.33;100932.81;5036668;28;45588;-76
2022/08/29 09:02:34;;;;;;;;;2.00;1.00;;;;;34.30;23.50;100942.91;5036702;28;45513;-77
2022/08/29 09:05:24;;;;;;;;;3.00;2.00;;;;;34.73;22.54;100950.75;5036772;28;45451;-75
2022/08/29 09:08:13;;;;;;;;;2.00;2.00;;;;;34.72;23.29;100949.03;5036932;28;45553;-76
2022/08/29 09:10:57;;;;;;;;;1.50;1.50;;;;;34.84;23.00;100947.63;5036058;28;45423;-76
2022/08/29 09:13:50;;;;;;;;;3.75;2.50;;;;;35.00;22.57;100945.78;5036637;28;45396;-76
2022/08/29 09:16:42;;;;;;;;;2.00;1.00;;;;;34.64;22.63;100951.84;5037031;28;45423;-75
2022/08/29 09:19:11;;;;;;;;;2.50;1.00;;;;;34.46;22.84;100950.19;5019377;28;45599;-75
2022/08/29 09:21:45;;;;;;;;;1.75;1.75;;;;;34.42;23.32;100946.13;5038615;28;46798;-75
2022/08/29 09:24:19;;;;;;;;;2.25;2.25;;;;;34.52;23.07;100935.78;5036204;28;45488;-75
2022/08/29 09:26:45;;;;;;;;;4.00;2.75;;;;;34.93;22.98;100933.84;5035988;28;45450;-75
2022/08/29 09:29:12;;;;;;;;;2.25;1.50;;;;;35.09;22.98;100939.22;5036942;28;45347;-75
2022/08/29 09:31:39;;;;;;;;;3.75;3.75;;;;;34.99;23.13;100941.38;5036371;28;45431;-76
2022/08/29 09:34:11;;;;;;;;;2.75;2.25;;;;;35.22;23.20;100938.59;5036848;28;45395;-76
2022/08/29 09:36:36;;;;;;;;;4.25;4.25;;;;;35.17;22.78;100941.91;5018096;28;45442;-75
2022/08/29 09:39:11;;;;;;;;;2.00;2.00;;;;;35.09;23.56;100939.22;5036277;28;45399;-75
2022/08/29 09:41:37;;;;;;;;;2.50;1.25;;;;;34.97;22.87;100943.41;5036208;28;45474;-76
2022/08/29 09:44:03;;;;;;;;;1.50;1.50;;;;;34.68;23.45;100942.19;5037465;28;45392;-83
2022/08/29 09:46:29;;;;;;;;;1.50;1.50;;;;;34.02;24.39;100942.47;5037445;28;45525;-79
2022/08/29 09:49:03;;;;;;;;;2.75;1.00;;;;;34.30;23.74;100939.31;5036162;28;45276;-75
2022/08/29 09:51:31;;;;;;;;;2.00;2.00;;;;;34.11;24.31;100941.41;5036123;28;46500;-74
2022/08/29 09:54:25;;;;;;;;;3.75;2.00;;;;;34.41;23.83;100932.59;5035685;28;45523;-74
2022/08/29 09:57:07;;;;;;;;;2.50;1.50;;;;;34.69;23.24;100932.94;5017518;28;45428;-74
2022/08/29 09:59:36;;;;;;;;;1.75;1.75;;;;;34.38;23.50;100936.53;5036121;28;45467;-75
2022/08/29 10:02:25;;;;;;;;;3.50;1.25;;;;;34.66;23.96;100945.13;5016873;28;48617;-75
2022/08/29 10:05:04;;;;;;;;;2.25;2.25;;;;;34.20;23.98;100938.66;5036316;28;45441;-75
2022/08/29 10:07:50;;;;;;;;;2.75;2.00;;;;;34.14;23.31;100938.31;5035712;28;45510;-75
2022/08/29 10:10:20;;;;;;;;;1.00;1.00;;;;;34.14;24.03;100930.06;5035630;28;45519;-74
2022/08/29 10:13:07;;;;;;;;;3.00;3.00;;;;;34.07;24.12;100939.19;5035570;28;46322;-75
2022/08/29 10:15:40;;;;;;;;;4.00;2.50;;;;;34.24;23.72;100923.53;5035853;28;45423;-74
2022/08/29 10:18:33;;;;;;;;;2.75;1.00;;;;;34.52;23.90;100932.19;5045174;28;45452;-74
2022/08/29 10:20:59;;;;;;;;;3.00;3.00;;;;;34.74;23.56;100926.91;4997680;28;45363;-75
2022/08/29 10:23:38;;;;;;;;;1.00;1.00;;;;;34.43;23.42;100917.66;5015516;28;45969;-77
2022/08/29 10:26:25;;;;;;;;;4.00;2.00;;;;;34.33;24.11;100922.50;4997387;28;45403;-78
2022/08/29 10:29:01;;;;;;;;;2.75;2.00;;;;;33.87;24.81;100927.78;5015694;28;45329;-77
2022/08/29 10:32:00;;;;;;;;;1.25;1.25;;;;;34.00;24.23;100928.94;5016086;28;45460;-77
2022/08/29 10:34:59;;;;;;;;;0.25;0.25;;;;;33.92;24.50;100939.06;5008954;28;46095;-78
2022/08/29 10:37:41;;;;;;;;;4.00;2.50;;;;;33.79;24.94;100926.75;5022661;28;45517;-77
2022/08/29 10:40:19;;;;;;;;;2.25;2.25;;;;;33.73;25.47;100921.13;5035723;28;45497;-76
2022/08/29 10:42:47;;;;;;;;;1.00;1.00;;;;;33.46;24.97;100925.91;5035711;28;45534;-77
2022/08/29 10:45:45;;;;;;;;;2.75;2.75;;;;;33.56;24.67;100923.03;5035525;28;45413;-77
2022/08/29 10:48:20;;;;;;;;;3.00;3.00;;;;;33.69;25.29;100895.06;5029114;28;45395;-78
2022/08/29 10:50:51;;;;;;;;;9.00;7.50;;;;;34.17;23.98;100912.44;5035341;28;45379;-77
2022/08/29 10:53:26;;;;;;;;;4.75;3.00;;;;;34.52;24.25;100905.59;5035582;28;45276;-83
2022/08/29 10:56:07;;;;;;;;;3.00;2.00;;;;;34.26;24.27;100900.41;5034979;28;46239;-77
2022/08/29 10:58:43;;;;;;;;;3.75;2.75;;;;;34.09;24.81;100905.09;5036154;28;45469;-75
2022/08/29 11:01:22;;;;;;;;;0.50;0.00;;;;;33.92;24.48;100897.94;5035273;28;45564;-76
2022/08/29 11:03:52;;;;;;;;;3.75;2.00;;;;;33.74;24.68;100914.59;5035033;28;45360;-76
2022/08/29 11:06:34;;;;;;;;;1.00;1.00;;;;;33.93;25.23;100902.41;5016909;28;47550;-76
2022/08/29 11:09:15;;;;;;;;;5.25;4.25;;;;;33.97;24.75;100895.56;5034903;28;45628;-76
2022/08/29 11:11:51;;;;;;;;;2.00;2.00;;;;;34.05;24.10;100902.88;5034218;28;45489;-76
2022/08/29 11:14:26;;;;;;;;;3.25;3.25;;;;;33.94;24.92;100907.72;5035544;28;45376;-78
2022/08/29 11:16:54;;;;;;;;;3.75;3.50;;;;;34.07;24.71;100904.41;5034257;28;45386;-76
2022/08/29 11:19:35;;;;;;;;;3.00;2.25;;;;;34.10;25.25;100901.34;5034039;28;45456;-75
2022/08/29 11:22:23;;;;;;;;;2.75;2.75;;;;;34.02;24.77;100903.25;5016515;28;45470;-76
2022/08/29 11:25:00;;;;;;;;;3.75;3.75;;;;;34.05;24.66;100898.25;5016871;28;45360;-76
2022/08/29 11:27:34;;;;;;;;;5.00;3.75;;;;;34.06;24.78;100896.34;5034363;28;45480;-76
2022/08/29 11:30:07;;;;;;;;;4.00;4.00;;;;;33.89;25.24;100890.97;5016375;28;45442;-76
2022/08/29 11:32:56;;;;;;;;;10.75;8.00;;;;;34.07;24.96;100890.69;5034901;28;45442;-75
2022/08/29 11:35:40;;;;;;;;;1.50;1.00;;;;;33.99;25.29;100886.09;5034144;28;45459;-74
2022/08/29 11:38:28;;;;;;;;;5.25;5.25;;;;;33.78;25.67;100891.31;5034242;28;45489;-75